sensor_id;sensor_type;location;lat;lon;timestamp;temperature;humidity
9167;DHT22;4618;48.818;9.088;2023-04-08T00:01:00;7.70;99.90
9167;DHT22;4618;48.818;9.088;2023-04-08T00:03:26;7.70;99.90
9167;DHT22;4618;48.818;9.088;2023-04-08T00:05:52;7.70;99.90
9167;DHT22;4618;48.818;9.088;2023-04-08T00:08:17;7.70;99.90
9167;DHT22;4618;48.818;9.088;2023-04-08T00:10:43;7.70;99.90
9167;DHT22;4618;48.818;9.088;2023-04-08T00:13:08;7.80;99.90
9167;DHT22;4618;48.818;9.088;2023-04-08T00:15:34;7.80;1.00
9167;DHT22;4618;48.818;9.088;2023-04-08T00:18:00;7.90;1.00
9167;DHT22;4618;48.818;9.088;2023-04-08T00:20:26;7.80;1.00
9167;DHT22;4618;48.818;9.088;2023-04-08T00:22:51;7.80;1.00
9167;DHT22;4618;48.818;9.088;2023-04-08T00:25:17;7.80;1.00
9167;DHT22;4618;48.818;9.088;2023-04-08T00:27:43;7.80;1.00
9167;DHT22;4618;48.818;9.088;2023-04-08T00:30:08;7.70;1.00
9167;DHT22;4618;48.818;9.088;2023-04-08T00:32:34;7.70;65.00
9167;DHT22;4618;48.818;9.088;2023-04-08T00:35:00;7.70;55.40
9167;DHT22;4618;48.818;9.088;2023-04-08T00:37:27;7.70;99.90
9167;DHT22;4618;48.818;9.088;2023-04-08T00:39:52;7.70;1.00
9167;DHT22;4618;48.818;9.088;2023-04-08T00:42:18;7.70;1.00
9167;DHT22;4618;48.818;9.088;2023-04-08T00:44:45;7.70;1.00
9167;DHT22;4618;48.818;9.088;2023-04-08T00:47:12;7.60;48.20
9167;DHT22;4618;48.818;9.088;2023-04-08T00:49:38;7.70;1.00
9167;DHT22;4618;48.818;9.088;2023-04-08T00:52:03;7.60;1.00
9167;DHT22;4618;48.818;9.088;2023-04-08T00:54:30;7.70;1.00
9167;DHT22;4618;48.818;9.088;2023-04-08T00:56:56;7.60;1.00
9167;DHT22;4618;48.818;9.088;2023-04-08T00:59:24;7.60;1.00
9167;DHT22;4618;48.818;9.088;2023-04-08T01:07:37;7.60;1.00
9167;DHT22;4618;48.818;9.088;2023-04-08T01:12:56;7.70;1.00
9167;DHT22;4618;48.818;9.088;2023-04-08T01:15:27;7.70;1.00
9167;DHT22;4618;48.818;9.088;2023-04-08T01:17:54;7.60;1.00
9167;DHT22;4618;48.818;9.088;2023-04-08T01:20:22;7.60;1.00
9167;DHT22;4618;48.818;9.088;2023-04-08T01:25:32;7.60;18.30
9167;DHT22;4618;48.818;9.088;2023-04-08T01:28:14;7.60;1.00
9167;DHT22;4618;48.818;9.088;2023-04-08T01:30:41;7.60;1.00
9167;DHT22;4618;48.818;9.088;2023-04-08T01:33:11;7.50;1.00
9167;DHT22;4618;48.818;9.088;2023-04-08T01:35:37;7.60;60.90
9167;DHT22;4618;48.818;9.088;2023-04-08T01:38:05;7.50;1.00
9167;DHT22;4618;48.818;9.088;2023-04-08T01:40:33;7.60;1.00
9167;DHT22;4618;48.818;9.088;2023-04-08T01:43:00;7.50;1.00
9167;DHT22;4618;48.818;9.088;2023-04-08T01:45:27;7.50;1.00
9167;DHT22;4618;48.818;9.088;2023-04-08T01:47:53;7.50;99.90
9167;DHT22;4618;48.818;9.088;2023-04-08T01:50:20;7.50;30.50
9167;DHT22;4618;48.818;9.088;2023-04-08T01:52:48;7.50;40.30
9167;DHT22;4618;48.818;9.088;2023-04-08T01:55:15;7.50;88.80
9167;DHT22;4618;48.818;9.088;2023-04-08T01:57:43;7.50;99.90
9167;DHT22;4618;48.818;9.088;2023-04-08T02:00:11;7.40;99.90
9167;DHT22;4618;48.818;9.088;2023-04-08T02:02:37;7.40;99.90
9167;DHT22;4618;48.818;9.088;2023-04-08T02:05:06;7.30;99.90
9167;DHT22;4618;48.818;9.088;2023-04-08T02:07:31;7.30;99.90
9167;DHT22;4618;48.818;9.088;2023-04-08T02:09:57;7.20;99.90
9167;DHT22;4618;48.818;9.088;2023-04-08T02:12:23;7.10;1.00
9167;DHT22;4618;48.818;9.088;2023-04-08T02:14:49;7.00;1.00
9167;DHT22;4618;48.818;9.088;2023-04-08T02:17:24;7.00;99.90
9167;DHT22;4618;48.818;9.088;2023-04-08T02:20:05;7.00;99.90
9167;DHT22;4618;48.818;9.088;2023-04-08T02:23:27;7.00;24.40
9167;DHT22;4618;48.818;9.088;2023-04-08T02:25:29;7.00;1.00
9167;DHT22;4618;48.818;9.088;2023-04-08T02:27:59;6.80;29.30
9167;DHT22;4618;48.818;9.088;2023-04-08T02:30:27;6.70;99.90
9167;DHT22;4618;48.818;9.088;2023-04-08T02:32:53;6.70;99.90
9167;DHT22;4618;48.818;9.088;2023-04-08T02:35:21;6.60;99.90
9167;DHT22;4618;48.818;9.088;2023-04-08T02:37:47;6.40;1.00
9167;DHT22;4618;48.818;9.088;2023-04-08T02:40:28;6.30;1.00
9167;DHT22;4618;48.818;9.088;2023-04-08T02:42:54;6.30;1.00
9167;DHT22;4618;48.818;9.088;2023-04-08T02:45:20;6.20;1.00
9167;DHT22;4618;48.818;9.088;2023-04-08T02:47:46;6.10;99.90
9167;DHT22;4618;48.818;9.088;2023-04-08T02:50:11;6.00;99.90
9167;DHT22;4618;48.818;9.088;2023-04-08T02:52:37;6.10;99.90
9167;DHT22;4618;48.818;9.088;2023-04-08T02:55:03;6.10;99.90
9167;DHT22;4618;48.818;9.088;2023-04-08T02:57:31;6.20;99.90
9167;DHT22;4618;48.818;9.088;2023-04-08T02:59:56;6.20;99.90
9167;DHT22;4618;48.818;9.088;2023-04-08T03:02:22;6.30;99.90
9167;DHT22;4618;48.818;9.088;2023-04-08T03:04:47;6.30;99.90
9167;DHT22;4618;48.818;9.088;2023-04-08T03:07:13;6.40;99.90
9167;DHT22;4618;48.818;9.088;2023-04-08T03:09:39;6.40;99.90
9167;DHT22;4618;48.818;9.088;2023-04-08T03:12:04;6.40;99.90
9167;DHT22;4618;48.818;9.088;2023-04-08T03:14:30;6.40;99.90
9167;DHT22;4618;48.818;9.088;2023-04-08T03:16:55;6.40;99.90
9167;DHT22;4618;48.818;9.088;2023-04-08T03:19:21;6.30;99.90
9167;DHT22;4618;48.818;9.088;2023-04-08T03:21:47;6.20;99.90
9167;DHT22;4618;48.818;9.088;2023-04-08T03:24:12;6.20;99.90
9167;DHT22;4618;48.818;9.088;2023-04-08T03:26:38;6.20;99.90
9167;DHT22;4618;48.818;9.088;2023-04-08T03:29:03;6.20;99.90
9167;DHT22;4618;48.818;9.088;2023-04-08T03:31:31;6.30;1.00
9167;DHT22;4618;48.818;9.088;2023-04-08T03:33:56;6.30;99.90
9167;DHT22;4618;48.818;9.088;2023-04-08T03:36:22;6.40;99.90
9167;DHT22;4618;48.818;9.088;2023-04-08T03:38:47;6.40;99.90
9167;DHT22;4618;48.818;9.088;2023-04-08T03:41:13;6.30;99.90
9167;DHT22;4618;48.818;9.088;2023-04-08T03:43:38;6.30;99.90
9167;DHT22;4618;48.818;9.088;2023-04-08T03:46:04;6.30;99.90
9167;DHT22;4618;48.818;9.088;2023-04-08T03:48:30;6.30;99.90
9167;DHT22;4618;48.818;9.088;2023-04-08T03:50:56;6.30;99.90
9167;DHT22;4618;48.818;9.088;2023-04-08T03:53:22;6.30;99.90
9167;DHT22;4618;48.818;9.088;2023-04-08T03:55:48;6.20;99.90
9167;DHT22;4618;48.818;9.088;2023-04-08T03:58:15;6.20;99.90
9167;DHT22;4618;48.818;9.088;2023-04-08T04:00:41;6.30;99.90
9167;DHT22;4618;48.818;9.088;2023-04-08T04:03:06;6.40;99.90
9167;DHT22;4618;48.818;9.088;2023-04-08T04:05:33;6.40;35.90
9167;DHT22;4618;48.818;9.088;2023-04-08T04:07:58;6.40;1.00
9167;DHT22;4618;48.818;9.088;2023-04-08T04:10:24;6.40;1.00
9167;DHT22;4618;48.818;9.088;2023-04-08T04:12:50;6.40;1.00
9167;DHT22;4618;48.818;9.088;2023-04-08T04:15:15;6.30;12.20
9167;DHT22;4618;48.818;9.088;2023-04-08T04:17:41;6.30;40.40
9167;DHT22;4618;48.818;9.088;2023-04-08T04:20:07;6.30;59.10
9167;DHT22;4618;48.818;9.088;2023-04-08T04:22:33;6.40;81.00
9167;DHT22;4618;48.818;9.088;2023-04-08T04:24:59;6.30;12.70
9167;DHT22;4618;48.818;9.088;2023-04-08T04:27:24;6.40;51.00
9167;DHT22;4618;48.818;9.088;2023-04-08T04:29:50;6.40;44.50
9167;DHT22;4618;48.818;9.088;2023-04-08T04:32:15;6.50;1.00
9167;DHT22;4618;48.818;9.088;2023-04-08T04:34:41;6.50;1.00
9167;DHT22;4618;48.818;9.088;2023-04-08T04:37:06;6.50;1.00
9167;DHT22;4618;48.818;9.088;2023-04-08T04:39:32;6.50;1.00
9167;DHT22;4618;48.818;9.088;2023-04-08T04:41:57;6.50;99.90
9167;DHT22;4618;48.818;9.088;2023-04-08T04:44:23;6.60;1.00
9167;DHT22;4618;48.818;9.088;2023-04-08T04:46:49;6.50;1.00
9167;DHT22;4618;48.818;9.088;2023-04-08T04:49:14;6.50;1.00
9167;DHT22;4618;48.818;9.088;2023-04-08T04:51:40;6.60;1.00
9167;DHT22;4618;48.818;9.088;2023-04-08T04:54:06;6.50;1.00
9167;DHT22;4618;48.818;9.088;2023-04-08T04:56:31;6.60;1.00
9167;DHT22;4618;48.818;9.088;2023-04-08T04:58:57;6.60;1.00
9167;DHT22;4618;48.818;9.088;2023-04-08T05:01:22;6.50;1.00
9167;DHT22;4618;48.818;9.088;2023-04-08T05:03:48;6.50;1.00
9167;DHT22;4618;48.818;9.088;2023-04-08T05:06:13;6.50;1.00
9167;DHT22;4618;48.818;9.088;2023-04-08T05:08:39;6.50;1.00
9167;DHT22;4618;48.818;9.088;2023-04-08T05:11:09;6.40;1.00
9167;DHT22;4618;48.818;9.088;2023-04-08T05:13:34;6.30;1.00
9167;DHT22;4618;48.818;9.088;2023-04-08T05:16:00;6.30;35.50
9167;DHT22;4618;48.818;9.088;2023-04-08T05:18:25;6.30;99.90
9167;DHT22;4618;48.818;9.088;2023-04-08T05:20:51;6.20;99.90
9167;DHT22;4618;48.818;9.088;2023-04-08T05:23:16;6.10;99.90
9167;DHT22;4618;48.818;9.088;2023-04-08T05:25:42;6.00;99.90
9167;DHT22;4618;48.818;9.088;2023-04-08T05:28:07;5.90;99.90
9167;DHT22;4618;48.818;9.088;2023-04-08T05:30:33;5.80;99.90
9167;DHT22;4618;48.818;9.088;2023-04-08T05:32:59;5.80;1.00
9167;DHT22;4618;48.818;9.088;2023-04-08T05:35:24;5.90;1.00
9167;DHT22;4618;48.818;9.088;2023-04-08T05:37:50;5.80;1.00
9167;DHT22;4618;48.818;9.088;2023-04-08T05:40:15;5.80;1.00
9167;DHT22;4618;48.818;9.088;2023-04-08T05:42:41;5.90;1.00
9167;DHT22;4618;48.818;9.088;2023-04-08T05:45:07;6.00;1.00
9167;DHT22;4618;48.818;9.088;2023-04-08T05:47:33;6.10;1.00
9167;DHT22;4618;48.818;9.088;2023-04-08T05:49:58;6.20;1.00
9167;DHT22;4618;48.818;9.088;2023-04-08T05:52:24;6.40;1.00
9167;DHT22;4618;48.818;9.088;2023-04-08T05:54:49;6.50;1.00
9167;DHT22;4618;48.818;9.088;2023-04-08T05:57:15;6.60;1.00
9167;DHT22;4618;48.818;9.088;2023-04-08T05:59:41;6.60;99.90
9167;DHT22;4618;48.818;9.088;2023-04-08T06:02:07;6.70;99.90
9167;DHT22;4618;48.818;9.088;2023-04-08T06:04:32;6.80;1.00
9167;DHT22;4618;48.818;9.088;2023-04-08T06:06:58;7.00;1.00
9167;DHT22;4618;48.818;9.088;2023-04-08T06:09:25;7.10;99.90
9167;DHT22;4618;48.818;9.088;2023-04-08T06:11:51;7.20;1.00
9167;DHT22;4618;48.818;9.088;2023-04-08T06:14:16;7.20;99.90
9167;DHT22;4618;48.818;9.088;2023-04-08T06:16:42;7.10;99.90
9167;DHT22;4618;48.818;9.088;2023-04-08T06:19:08;7.20;99.90
9167;DHT22;4618;48.818;9.088;2023-04-08T06:21:33;7.20;99.90
9167;DHT22;4618;48.818;9.088;2023-04-08T06:23:59;7.30;99.90
9167;DHT22;4618;48.818;9.088;2023-04-08T06:26:25;7.30;99.90
9167;DHT22;4618;48.818;9.088;2023-04-08T06:28:52;7.30;1.00
9167;DHT22;4618;48.818;9.088;2023-04-08T06:31:17;7.40;1.00
9167;DHT22;4618;48.818;9.088;2023-04-08T06:33:43;7.50;1.00
9167;DHT22;4618;48.818;9.088;2023-04-08T06:36:08;7.50;1.00
9167;DHT22;4618;48.818;9.088;2023-04-08T06:38:34;7.60;1.00
9167;DHT22;4618;48.818;9.088;2023-04-08T06:41:04;7.60;1.00
9167;DHT22;4618;48.818;9.088;2023-04-08T06:43:31;7.70;1.00
9167;DHT22;4618;48.818;9.088;2023-04-08T06:45:57;7.80;99.90
9167;DHT22;4618;48.818;9.088;2023-04-08T06:48:23;7.70;99.90
9167;DHT22;4618;48.818;9.088;2023-04-08T06:50:56;7.70;99.90
9167;DHT22;4618;48.818;9.088;2023-04-08T06:53:23;7.80;99.90
9167;DHT22;4618;48.818;9.088;2023-04-08T06:55:49;7.80;99.90
9167;DHT22;4618;48.818;9.088;2023-04-08T06:58:14;7.80;99.90
9167;DHT22;4618;48.818;9.088;2023-04-08T07:00:41;7.90;99.90
9167;DHT22;4618;48.818;9.088;2023-04-08T07:03:07;7.80;99.90
9167;DHT22;4618;48.818;9.088;2023-04-08T07:05:34;7.90;99.90
9167;DHT22;4618;48.818;9.088;2023-04-08T07:08:01;7.90;58.30
9167;DHT22;4618;48.818;9.088;2023-04-08T07:10:27;7.90;6.20
9167;DHT22;4618;48.818;9.088;2023-04-08T07:12:53;8.00;99.90
9167;DHT22;4618;48.818;9.088;2023-04-08T07:15:18;8.20;99.90
9167;DHT22;4618;48.818;9.088;2023-04-08T07:17:44;8.30;1.00
9167;DHT22;4618;48.818;9.088;2023-04-08T07:20:11;8.50;1.00
9167;DHT22;4618;48.818;9.088;2023-04-08T07:22:38;8.70;99.90
9167;DHT22;4618;48.818;9.088;2023-04-08T07:25:04;8.70;99.90
9167;DHT22;4618;48.818;9.088;2023-04-08T07:27:30;8.70;99.90
9167;DHT22;4618;48.818;9.088;2023-04-08T07:29:56;8.80;99.90
9167;DHT22;4618;48.818;9.088;2023-04-08T07:32:22;8.90;99.90
9167;DHT22;4618;48.818;9.088;2023-04-08T07:34:48;9.00;1.00
9167;DHT22;4618;48.818;9.088;2023-04-08T07:37:13;9.10;1.00
9167;DHT22;4618;48.818;9.088;2023-04-08T07:39:39;9.10;99.90
9167;DHT22;4618;48.818;9.088;2023-04-08T07:42:04;9.30;1.00
9167;DHT22;4618;48.818;9.088;2023-04-08T07:44:30;9.20;99.90
9167;DHT22;4618;48.818;9.088;2023-04-08T07:46:56;9.40;99.90
9167;DHT22;4618;48.818;9.088;2023-04-08T07:49:21;9.50;99.90
9167;DHT22;4618;48.818;9.088;2023-04-08T07:51:47;9.70;1.00
9167;DHT22;4618;48.818;9.088;2023-04-08T07:54:12;9.70;1.00
9167;DHT22;4618;48.818;9.088;2023-04-08T07:56:42;9.80;1.00
9167;DHT22;4618;48.818;9.088;2023-04-08T07:59:09;9.90;1.00
9167;DHT22;4618;48.818;9.088;2023-04-08T08:01:35;10.10;99.90
9167;DHT22;4618;48.818;9.088;2023-04-08T08:04:01;10.20;1.00
9167;DHT22;4618;48.818;9.088;2023-04-08T08:06:27;10.40;1.00
9167;DHT22;4618;48.818;9.088;2023-04-08T08:08:52;10.70;99.90
9167;DHT22;4618;48.818;9.088;2023-04-08T08:11:18;11.00;1.00
9167;DHT22;4618;48.818;9.088;2023-04-08T08:13:44;11.10;1.00
9167;DHT22;4618;48.818;9.088;2023-04-08T08:16:09;11.20;1.00
9167;DHT22;4618;48.818;9.088;2023-04-08T08:18:39;11.40;99.90
9167;DHT22;4618;48.818;9.088;2023-04-08T08:21:06;11.40;1.00
9167;DHT22;4618;48.818;9.088;2023-04-08T08:23:32;11.50;99.90
9167;DHT22;4618;48.818;9.088;2023-04-08T08:26:02;11.50;99.90
9167;DHT22;4618;48.818;9.088;2023-04-08T08:28:28;11.50;99.90
9167;DHT22;4618;48.818;9.088;2023-04-08T08:30:53;11.60;99.90
9167;DHT22;4618;48.818;9.088;2023-04-08T08:33:19;11.70;99.90
9167;DHT22;4618;48.818;9.088;2023-04-08T08:35:44;11.70;99.90
9167;DHT22;4618;48.818;9.088;2023-04-08T08:38:10;11.90;1.00
9167;DHT22;4618;48.818;9.088;2023-04-08T08:40:38;11.80;99.90
9167;DHT22;4618;48.818;9.088;2023-04-08T08:43:03;12.00;99.90
9167;DHT22;4618;48.818;9.088;2023-04-08T08:45:29;12.40;1.00
9167;DHT22;4618;48.818;9.088;2023-04-08T08:47:55;12.70;99.90
9167;DHT22;4618;48.818;9.088;2023-04-08T08:50:21;13.10;1.00
9167;DHT22;4618;48.818;9.088;2023-04-08T08:52:51;13.50;99.90
9167;DHT22;4618;48.818;9.088;2023-04-08T08:55:20;13.20;99.90
9167;DHT22;4618;48.818;9.088;2023-04-08T08:57:49;12.80;99.90
9167;DHT22;4618;48.818;9.088;2023-04-08T09:00:15;12.50;1.00
9167;DHT22;4618;48.818;9.088;2023-04-08T09:02:41;12.80;1.00
9167;DHT22;4618;48.818;9.088;2023-04-08T09:05:06;13.20;99.90
9167;DHT22;4618;48.818;9.088;2023-04-08T09:07:35;13.70;99.90
9167;DHT22;4618;48.818;9.088;2023-04-08T09:10:01;13.90;99.90
9167;DHT22;4618;48.818;9.088;2023-04-08T09:12:27;13.60;13.30
9167;DHT22;4618;48.818;9.088;2023-04-08T09:15:07;13.40;77.40
9167;DHT22;4618;48.818;9.088;2023-04-08T09:17:37;13.60;19.10
9167;DHT22;4618;48.818;9.088;2023-04-08T09:20:09;14.00;99.90
9167;DHT22;4618;48.818;9.088;2023-04-08T09:22:57;14.30;1.00
9167;DHT22;4618;48.818;9.088;2023-04-08T09:25:25;14.20;1.00
9167;DHT22;4618;48.818;9.088;2023-04-08T09:27:51;14.10;1.00
9167;DHT22;4618;48.818;9.088;2023-04-08T09:30:19;14.20;1.00
9167;DHT22;4618;48.818;9.088;2023-04-08T09:32:56;14.70;1.00
9167;DHT22;4618;48.818;9.088;2023-04-08T09:35:22;15.10;1.00
9167;DHT22;4618;48.818;9.088;2023-04-08T09:37:49;15.10;1.00
9167;DHT22;4618;48.818;9.088;2023-04-08T09:40:15;14.90;1.00
9167;DHT22;4618;48.818;9.088;2023-04-08T09:42:44;15.00;1.00
9167;DHT22;4618;48.818;9.088;2023-04-08T09:45:13;15.30;1.00
9167;DHT22;4618;48.818;9.088;2023-04-08T09:50:43;15.40;1.00
9167;DHT22;4618;48.818;9.088;2023-04-08T09:53:29;15.00;1.00
9167;DHT22;4618;48.818;9.088;2023-04-08T09:55:57;15.00;1.00
9167;DHT22;4618;48.818;9.088;2023-04-08T09:58:28;15.20;1.00
9167;DHT22;4618;48.818;9.088;2023-04-08T10:00:54;15.50;1.00
9167;DHT22;4618;48.818;9.088;2023-04-08T10:03:32;15.60;1.00
9167;DHT22;4618;48.818;9.088;2023-04-08T10:06:02;15.70;1.00
9167;DHT22;4618;48.818;9.088;2023-04-08T10:08:29;15.80;1.00
9167;DHT22;4618;48.818;9.088;2023-04-08T10:10:56;15.80;1.00
9167;DHT22;4618;48.818;9.088;2023-04-08T10:13:22;15.90;1.00
9167;DHT22;4618;48.818;9.088;2023-04-08T10:15:48;16.40;1.00
9167;DHT22;4618;48.818;9.088;2023-04-08T10:20:46;16.60;1.00
9167;DHT22;4618;48.818;9.088;2023-04-08T10:23:14;16.60;1.00
9167;DHT22;4618;48.818;9.088;2023-04-08T10:25:40;16.30;1.00
9167;DHT22;4618;48.818;9.088;2023-04-08T10:30:45;15.50;1.00
9167;DHT22;4618;48.818;9.088;2023-04-08T10:33:16;14.80;1.00
9167;DHT22;4618;48.818;9.088;2023-04-08T10:35:47;14.40;1.00
9167;DHT22;4618;48.818;9.088;2023-04-08T10:38:14;13.90;1.00
9167;DHT22;4618;48.818;9.088;2023-04-08T10:40:41;13.50;1.00
9167;DHT22;4618;48.818;9.088;2023-04-08T10:43:11;13.40;1.00
9167;DHT22;4618;48.818;9.088;2023-04-08T10:45:37;13.10;1.00
9167;DHT22;4618;48.818;9.088;2023-04-08T10:48:20;13.00;1.00
9167;DHT22;4618;48.818;9.088;2023-04-08T10:50:58;12.80;1.00
9167;DHT22;4618;48.818;9.088;2023-04-08T10:53:35;12.70;1.00
9167;DHT22;4618;48.818;9.088;2023-04-08T10:56:11;12.50;1.00
9167;DHT22;4618;48.818;9.088;2023-04-08T10:58:53;12.50;1.00
9167;DHT22;4618;48.818;9.088;2023-04-08T11:01:21;12.40;1.00
9167;DHT22;4618;48.818;9.088;2023-04-08T11:03:47;12.30;1.00
9167;DHT22;4618;48.818;9.088;2023-04-08T11:06:13;12.50;1.00
9167;DHT22;4618;48.818;9.088;2023-04-08T11:08:39;12.50;1.00
9167;DHT22;4618;48.818;9.088;2023-04-08T11:11:05;12.50;1.00
9167;DHT22;4618;48.818;9.088;2023-04-08T11:13:36;12.40;1.00
9167;DHT22;4618;48.818;9.088;2023-04-08T11:16:03;12.30;1.00
9167;DHT22;4618;48.818;9.088;2023-04-08T11:18:30;12.30;1.00
9167;DHT22;4618;48.818;9.088;2023-04-08T11:20:56;12.10;1.00
9167;DHT22;4618;48.818;9.088;2023-04-08T11:23:24;12.00;1.00
9167;DHT22;4618;48.818;9.088;2023-04-08T11:25:50;12.00;1.00
9167;DHT22;4618;48.818;9.088;2023-04-08T11:28:17;12.10;1.00
9167;DHT22;4618;48.818;9.088;2023-04-08T11:30:43;12.10;1.00
9167;DHT22;4618;48.818;9.088;2023-04-08T11:33:09;12.30;1.00
9167;DHT22;4618;48.818;9.088;2023-04-08T11:35:39;12.40;1.00
9167;DHT22;4618;48.818;9.088;2023-04-08T11:38:06;12.40;1.00
9167;DHT22;4618;48.818;9.088;2023-04-08T11:40:32;12.70;1.00
9167;DHT22;4618;48.818;9.088;2023-04-08T11:42:58;12.90;1.00
9167;DHT22;4618;48.818;9.088;2023-04-08T11:45:24;12.90;1.00
9167;DHT22;4618;48.818;9.088;2023-04-08T11:47:50;12.80;1.00
9167;DHT22;4618;48.818;9.088;2023-04-08T11:50:23;12.80;1.00
9167;DHT22;4618;48.818;9.088;2023-04-08T11:52:50;12.90;1.00
9167;DHT22;4618;48.818;9.088;2023-04-08T11:55:45;12.90;1.00
9167;DHT22;4618;48.818;9.088;2023-04-08T11:58:11;13.10;1.00
9167;DHT22;4618;48.818;9.088;2023-04-08T12:00:37;13.00;1.00
9167;DHT22;4618;48.818;9.088;2023-04-08T12:03:03;13.00;1.00
9167;DHT22;4618;48.818;9.088;2023-04-08T12:05:29;13.00;1.00
9167;DHT22;4618;48.818;9.088;2023-04-08T12:07:54;12.90;1.00
9167;DHT22;4618;48.818;9.088;2023-04-08T12:10:20;12.70;1.00
9167;DHT22;4618;48.818;9.088;2023-04-08T12:12:46;12.60;1.00
9167;DHT22;4618;48.818;9.088;2023-04-08T12:15:12;12.70;1.00
9167;DHT22;4618;48.818;9.088;2023-04-08T12:17:37;12.70;1.00
9167;DHT22;4618;48.818;9.088;2023-04-08T12:20:04;12.60;1.00
9167;DHT22;4618;48.818;9.088;2023-04-08T12:22:30;12.60;1.00
9167;DHT22;4618;48.818;9.088;2023-04-08T12:24:56;12.60;1.00
9167;DHT22;4618;48.818;9.088;2023-04-08T12:27:21;12.60;1.00
9167;DHT22;4618;48.818;9.088;2023-04-08T12:29:47;12.30;1.00
9167;DHT22;4618;48.818;9.088;2023-04-08T12:32:14;12.10;1.00
9167;DHT22;4618;48.818;9.088;2023-04-08T12:34:40;12.10;1.00
9167;DHT22;4618;48.818;9.088;2023-04-08T12:37:06;12.00;1.00
9167;DHT22;4618;48.818;9.088;2023-04-08T12:39:31;11.80;1.00
9167;DHT22;4618;48.818;9.088;2023-04-08T12:41:57;11.70;1.00
9167;DHT22;4618;48.818;9.088;2023-04-08T12:44:23;11.60;1.00
9167;DHT22;4618;48.818;9.088;2023-04-08T12:46:49;11.40;1.00
9167;DHT22;4618;48.818;9.088;2023-04-08T12:49:15;11.30;1.00
9167;DHT22;4618;48.818;9.088;2023-04-08T12:51:41;11.10;1.00
9167;DHT22;4618;48.818;9.088;2023-04-08T12:54:06;11.10;1.00
9167;DHT22;4618;48.818;9.088;2023-04-08T12:56:32;11.10;1.00
9167;DHT22;4618;48.818;9.088;2023-04-08T12:58:58;11.10;1.00
9167;DHT22;4618;48.818;9.088;2023-04-08T13:01:25;11.10;1.00
9167;DHT22;4618;48.818;9.088;2023-04-08T13:03:51;11.10;1.00
9167;DHT22;4618;48.818;9.088;2023-04-08T13:06:16;11.20;1.00
9167;DHT22;4618;48.818;9.088;2023-04-08T13:08:42;11.30;1.00
9167;DHT22;4618;48.818;9.088;2023-04-08T13:11:08;11.50;1.00
9167;DHT22;4618;48.818;9.088;2023-04-08T13:13:33;11.50;1.00
9167;DHT22;4618;48.818;9.088;2023-04-08T13:15:59;11.60;1.00
9167;DHT22;4618;48.818;9.088;2023-04-08T13:18:25;11.60;1.00
9167;DHT22;4618;48.818;9.088;2023-04-08T13:20:50;11.70;1.00
9167;DHT22;4618;48.818;9.088;2023-04-08T13:23:16;11.90;1.00
9167;DHT22;4618;48.818;9.088;2023-04-08T13:25:43;11.90;1.00
9167;DHT22;4618;48.818;9.088;2023-04-08T13:28:09;11.90;1.00
9167;DHT22;4618;48.818;9.088;2023-04-08T13:30:35;12.10;1.00
9167;DHT22;4618;48.818;9.088;2023-04-08T13:33:00;12.10;1.00
9167;DHT22;4618;48.818;9.088;2023-04-08T13:35:26;12.10;1.00
9167;DHT22;4618;48.818;9.088;2023-04-08T13:37:52;12.20;1.00
9167;DHT22;4618;48.818;9.088;2023-04-08T13:40:17;12.40;1.00
9167;DHT22;4618;48.818;9.088;2023-04-08T13:42:43;12.40;1.00
9167;DHT22;4618;48.818;9.088;2023-04-08T13:45:08;12.40;1.00
9167;DHT22;4618;48.818;9.088;2023-04-08T13:47:34;12.60;1.00
9167;DHT22;4618;48.818;9.088;2023-04-08T13:50:00;12.70;1.00
9167;DHT22;4618;48.818;9.088;2023-04-08T13:52:25;12.80;1.00
9167;DHT22;4618;48.818;9.088;2023-04-08T13:54:51;12.80;1.00
9167;DHT22;4618;48.818;9.088;2023-04-08T13:57:17;12.80;1.00
9167;DHT22;4618;48.818;9.088;2023-04-08T13:59:42;12.70;1.00
9167;DHT22;4618;48.818;9.088;2023-04-08T14:02:08;12.60;1.00
9167;DHT22;4618;48.818;9.088;2023-04-08T14:04:34;12.60;1.00
9167;DHT22;4618;48.818;9.088;2023-04-08T14:06:59;12.60;1.00
9167;DHT22;4618;48.818;9.088;2023-04-08T14:09:25;12.80;1.00
9167;DHT22;4618;48.818;9.088;2023-04-08T14:11:50;13.00;1.00
9167;DHT22;4618;48.818;9.088;2023-04-08T14:14:16;13.10;1.00
9167;DHT22;4618;48.818;9.088;2023-04-08T14:16:41;13.40;1.00
9167;DHT22;4618;48.818;9.088;2023-04-08T14:19:07;13.70;1.00
9167;DHT22;4618;48.818;9.088;2023-04-08T14:21:33;14.10;1.00
9167;DHT22;4618;48.818;9.088;2023-04-08T14:23:59;14.40;1.00
9167;DHT22;4618;48.818;9.088;2023-04-08T14:26:25;14.70;1.00
9167;DHT22;4618;48.818;9.088;2023-04-08T14:28:51;14.70;1.00
9167;DHT22;4618;48.818;9.088;2023-04-08T14:31:17;14.40;1.00
9167;DHT22;4618;48.818;9.088;2023-04-08T14:33:43;14.40;1.00
9167;DHT22;4618;48.818;9.088;2023-04-08T14:36:09;14.30;1.00
9167;DHT22;4618;48.818;9.088;2023-04-08T14:38:35;14.00;1.00
9167;DHT22;4618;48.818;9.088;2023-04-08T14:41:00;14.10;1.00
9167;DHT22;4618;48.818;9.088;2023-04-08T14:43:26;14.30;1.00
9167;DHT22;4618;48.818;9.088;2023-04-08T14:45:52;14.50;1.00
9167;DHT22;4618;48.818;9.088;2023-04-08T14:48:18;14.00;1.00
9167;DHT22;4618;48.818;9.088;2023-04-08T14:50:44;13.70;1.00
9167;DHT22;4618;48.818;9.088;2023-04-08T14:53:09;13.40;1.00
9167;DHT22;4618;48.818;9.088;2023-04-08T14:55:35;13.30;1.00
9167;DHT22;4618;48.818;9.088;2023-04-08T14:58:01;13.10;1.00
9167;DHT22;4618;48.818;9.088;2023-04-08T15:00:26;12.70;1.00
9167;DHT22;4618;48.818;9.088;2023-04-08T15:02:52;12.60;1.00
9167;DHT22;4618;48.818;9.088;2023-04-08T15:05:17;12.20;1.00
9167;DHT22;4618;48.818;9.088;2023-04-08T15:07:43;12.10;1.00
9167;DHT22;4618;48.818;9.088;2023-04-08T15:10:09;12.10;1.00
9167;DHT22;4618;48.818;9.088;2023-04-08T15:12:35;12.10;1.00
9167;DHT22;4618;48.818;9.088;2023-04-08T15:15:01;11.90;1.00
9167;DHT22;4618;48.818;9.088;2023-04-08T15:17:26;11.80;1.00
9167;DHT22;4618;48.818;9.088;2023-04-08T15:19:52;11.80;1.00
9167;DHT22;4618;48.818;9.088;2023-04-08T15:22:18;11.80;1.00
9167;DHT22;4618;48.818;9.088;2023-04-08T15:24:44;11.90;1.00
9167;DHT22;4618;48.818;9.088;2023-04-08T15:27:09;12.00;1.00
9167;DHT22;4618;48.818;9.088;2023-04-08T15:29:35;12.10;1.00
9167;DHT22;4618;48.818;9.088;2023-04-08T15:32:01;12.20;1.00
9167;DHT22;4618;48.818;9.088;2023-04-08T15:34:26;12.10;1.00
9167;DHT22;4618;48.818;9.088;2023-04-08T15:36:53;12.00;1.00
9167;DHT22;4618;48.818;9.088;2023-04-08T15:39:18;12.00;1.00
9167;DHT22;4618;48.818;9.088;2023-04-08T15:41:44;11.90;1.00
9167;DHT22;4618;48.818;9.088;2023-04-08T15:44:10;11.70;1.00
9167;DHT22;4618;48.818;9.088;2023-04-08T15:46:35;11.70;1.00
9167;DHT22;4618;48.818;9.088;2023-04-08T15:49:01;11.50;1.00
9167;DHT22;4618;48.818;9.088;2023-04-08T15:51:27;11.50;1.00
9167;DHT22;4618;48.818;9.088;2023-04-08T15:53:53;11.50;1.00
9167;DHT22;4618;48.818;9.088;2023-04-08T15:56:18;11.30;1.00
9167;DHT22;4618;48.818;9.088;2023-04-08T15:58:45;11.30;1.00
9167;DHT22;4618;48.818;9.088;2023-04-08T16:01:11;11.40;1.00
9167;DHT22;4618;48.818;9.088;2023-04-08T16:03:37;11.50;1.00
9167;DHT22;4618;48.818;9.088;2023-04-08T16:06:03;11.30;1.00
9167;DHT22;4618;48.818;9.088;2023-04-08T16:08:30;11.30;1.00
9167;DHT22;4618;48.818;9.088;2023-04-08T16:11:02;11.30;1.00
9167;DHT22;4618;48.818;9.088;2023-04-08T16:13:28;11.30;1.00
9167;DHT22;4618;48.818;9.088;2023-04-08T16:15:55;11.10;1.00
9167;DHT22;4618;48.818;9.088;2023-04-08T16:18:21;11.10;79.20
9167;DHT22;4618;48.818;9.088;2023-04-08T16:20:47;11.00;52.50
9167;DHT22;4618;48.818;9.088;2023-04-08T16:23:14;11.00;61.10
9167;DHT22;4618;48.818;9.088;2023-04-08T16:25:40;11.00;99.90
9167;DHT22;4618;48.818;9.088;2023-04-08T16:28:06;11.00;99.90
9167;DHT22;4618;48.818;9.088;2023-04-08T16:30:32;11.00;99.90
9167;DHT22;4618;48.818;9.088;2023-04-08T16:32:57;10.90;99.90
9167;DHT22;4618;48.818;9.088;2023-04-08T16:35:23;11.00;90.50